createdAt,value
2019-06-01T00:01:29.934Z,0.00
2019-06-01T00:06:29.730Z,0.00
2019-06-01T00:11:29.834Z,0.00
2019-06-01T00:16:29.688Z,0.00
2019-06-01T00:21:29.587Z,0.00
2019-06-01T00:26:29.452Z,0.00
2019-06-01T00:31:29.457Z,0.00
2019-06-01T00:36:29.318Z,0.00
2019-06-01T00:41:29.359Z,0.00
2019-06-01T00:46:29.198Z,0.00
2019-06-01T00:51:29.260Z,0.00
2019-06-01T00:56:29.347Z,0.00
2019-06-01T01:01:29.256Z,0.00
2019-06-01T01:06:30.266Z,0.00
2019-06-01T01:11:29.470Z,0.00
2019-06-01T01:16:28.937Z,0.00
2019-06-01T01:21:28.947Z,0.00
2019-06-01T01:26:28.935Z,0.00
2019-06-01T01:31:28.732Z,0.00
2019-06-01T01:36:28.683Z,0.00
2019-06-01T01:41:28.604Z,0.00
2019-06-01T01:46:28.663Z,0.00
2019-06-01T01:51:28.479Z,0.00
2019-06-01T01:56:28.691Z,0.00
2019-06-01T02:01:28.531Z,0.00
2019-06-01T02:06:29.279Z,0.00
2019-06-01T02:11:28.383Z,0.00
2019-06-01T02:16:28.274Z,0.00
2019-06-01T02:21:28.223Z,0.00
2019-06-01T02:26:28.171Z,0.00
2019-06-01T02:31:40.984Z,0.00
2019-06-01T02:36:29.025Z,0.00
2019-06-01T02:41:27.956Z,0.00
2019-06-01T02:46:27.920Z,4.00
2019-06-01T02:51:27.990Z,8.00
2019-06-01T02:56:27.905Z,12.00
2019-06-01T03:01:27.861Z,20.00
2019-06-01T03:06:27.789Z,40.00
2019-06-01T03:11:27.991Z,72.00
2019-06-01T03:16:27.793Z,132.00
2019-06-01T03:21:27.497Z,228.00
2019-06-01T03:26:27.443Z,340.00
2019-06-01T03:31:27.411Z,488.00
2019-06-01T03:36:27.363Z,696.00
2019-06-01T03:41:27.275Z,948.00
2019-06-01T03:46:27.302Z,1288.00
2019-06-01T03:51:29.327Z,1744.00
2019-06-01T03:56:27.264Z,2220.00
2019-06-01T04:01:27.202Z,2660.00
2019-06-01T04:06:27.014Z,3192.00
2019-06-01T04:11:27.032Z,3664.00
2019-06-01T04:16:27.101Z,4356.00
2019-06-01T04:21:26.838Z,4808.00
2019-06-01T04:26:26.784Z,5064.00
2019-06-01T04:31:26.958Z,5520.00
2019-06-01T04:36:26.858Z,5944.00
2019-06-01T04:41:26.727Z,6192.00
2019-06-01T04:46:26.641Z,7024.00
2019-06-01T04:51:29.868Z,7480.00
2019-06-01T04:56:26.529Z,9660.00
2019-06-01T05:01:26.398Z,11328.00
2019-06-01T05:06:26.393Z,15656.00
2019-06-01T05:11:26.294Z,14504.00
2019-06-01T05:16:26.347Z,12408.00
2019-06-01T05:21:26.299Z,20160.00
2019-06-01T05:26:26.305Z,27200.00
2019-06-01T05:31:26.194Z,32128.00
2019-06-01T05:36:28.217Z,37952.00
2019-06-01T05:41:26.079Z,36352.00
2019-06-01T05:46:27.094Z,34976.00
2019-06-01T05:51:25.960Z,31232.00
2019-06-01T05:56:25.965Z,19424.00
2019-06-01T06:01:25.780Z,27712.00
2019-06-01T06:06:25.731Z,25376.00
2019-06-01T06:11:25.664Z,26464.00
2019-06-01T06:16:25.736Z,27904.00
2019-06-01T06:21:25.802Z,29344.00
2019-06-01T06:26:26.600Z,30144.00
2019-06-01T06:31:25.619Z,29280.00
2019-06-01T06:36:25.675Z,33344.00
2019-06-01T06:41:25.410Z,41216.00
2019-06-01T06:46:25.464Z,51008.00
2019-06-01T06:51:25.598Z,28480.00
2019-06-01T06:56:26.180Z,24352.00
2019-06-01T07:01:25.326Z,24672.00
2019-06-01T07:06:25.703Z,25408.00
2019-06-01T07:11:25.433Z,26688.00
2019-06-01T07:16:28.207Z,28224.00
2019-06-01T07:21:25.863Z,28736.00
2019-06-01T07:26:26.117Z,29920.00
2019-06-01T07:31:26.188Z,30368.00
2019-06-01T07:36:24.904Z,32032.00
2019-06-01T07:41:24.924Z,53120.00
2019-06-01T07:46:24.923Z,63104.00
2019-06-01T07:51:25.501Z,66528.00
2019-06-01T07:56:24.798Z,67424.00
2019-06-01T08:01:25.811Z,75072.00
2019-06-01T08:06:28.792Z,79168.00
2019-06-01T08:11:30.107Z,75840.00
2019-06-01T08:16:25.877Z,73280.00
2019-06-01T08:21:24.488Z,84256.00
2019-06-01T08:26:24.480Z,86880.00
2019-06-01T08:31:24.561Z,90624.00
2019-06-01T08:36:25.226Z,93888.00
2019-06-01T08:41:25.501Z,95008.00
2019-06-01T08:46:25.457Z,94880.00
2019-06-01T08:51:24.266Z,93280.00
2019-06-01T08:56:24.295Z,91840.00
2019-06-01T09:01:24.495Z,77856.00
2019-06-01T09:06:24.832Z,63872.00
2019-06-01T09:11:25.061Z,93440.00
2019-06-01T09:16:25.378Z,79200.00
2019-06-01T09:21:25.273Z,36352.00
2019-06-01T09:26:24.069Z,93856.00
2019-06-01T09:31:24.012Z,91680.00
2019-06-01T09:36:23.909Z,91904.00
2019-06-01T09:41:23.849Z,99872.00
2019-06-01T09:46:23.802Z,102560.00
2019-06-01T09:51:23.831Z,104672.00
2019-06-01T09:56:29.045Z,96608.00
2019-06-01T10:01:25.294Z,98368.00
2019-06-01T10:06:23.590Z,98592.00
2019-06-01T10:11:23.735Z,95232.00
2019-06-01T10:16:24.762Z,97504.00
2019-06-01T10:21:23.589Z,86560.00
2019-06-01T10:26:23.462Z,100640.00
2019-06-01T10:31:23.387Z,34720.00
2019-06-01T10:36:23.422Z,109280.00
2019-06-01T10:41:23.311Z,106080.00
2019-06-01T10:46:23.279Z,110560.00
2019-06-01T10:51:23.217Z,105952.00
2019-06-01T10:56:25.198Z,101184.00
2019-06-01T11:01:23.139Z,99904.00
2019-06-01T11:06:36.598Z,95328.00
2019-06-01T11:11:24.053Z,105024.00
2019-06-01T11:16:23.058Z,108672.00
2019-06-01T11:21:23.068Z,113184.00
2019-06-01T11:26:22.941Z,108928.00
2019-06-01T11:31:26.166Z,112192.00
2019-06-01T11:36:22.871Z,111648.00
2019-06-01T11:41:23.117Z,117760.00
2019-06-01T11:46:22.821Z,115360.00
2019-06-01T11:51:22.794Z,119168.00
2019-06-01T11:56:22.713Z,114784.00
2019-06-01T12:01:22.785Z,115744.00
2019-06-01T12:06:22.704Z,101344.00
2019-06-01T12:11:22.784Z,111584.00
2019-06-01T12:16:22.772Z,121664.00
2019-06-01T12:21:22.613Z,101472.00
2019-06-01T12:26:22.663Z,104960.00
2019-06-01T12:31:22.613Z,102304.00
2019-06-01T12:36:22.474Z,110336.00
2019-06-01T12:41:22.771Z,111712.00
2019-06-01T12:46:22.388Z,104352.00
2019-06-01T12:51:22.328Z,103008.00
2019-06-01T12:56:22.424Z,99392.00
2019-06-01T13:01:22.252Z,91968.00
2019-06-01T13:06:22.209Z,85312.00
2019-06-01T13:11:22.211Z,92288.00
2019-06-01T13:16:22.219Z,94688.00
2019-06-01T13:21:22.170Z,97984.00
2019-06-01T13:26:22.251Z,92128.00
2019-06-01T13:31:22.014Z,98208.00
2019-06-01T13:36:22.209Z,100672.00
2019-06-01T13:41:22.006Z,94144.00
2019-06-01T13:46:21.931Z,94816.00
2019-06-01T13:51:21.859Z,86528.00
2019-06-01T13:56:21.828Z,87904.00
2019-06-01T14:01:21.814Z,76704.00
2019-06-01T14:06:21.841Z,73984.00
2019-06-01T14:11:21.820Z,74944.00
2019-06-01T14:16:21.723Z,69568.00
2019-06-01T14:21:22.011Z,69024.00
2019-06-01T14:26:21.694Z,65088.00
2019-06-01T14:31:21.610Z,61504.00
2019-06-01T14:36:21.556Z,62016.00
2019-06-01T14:41:21.602Z,63584.00
2019-06-01T14:46:21.464Z,64160.00
2019-06-01T14:51:21.453Z,64128.00
2019-06-01T14:56:21.382Z,62144.00
2019-06-01T15:01:32.105Z,63360.00
2019-06-01T15:06:22.360Z,64320.00
2019-06-01T15:11:21.261Z,64416.00
2019-06-01T15:16:21.200Z,65472.00
2019-06-01T15:21:21.216Z,57664.00
2019-06-01T15:26:21.240Z,56160.00
2019-06-01T15:31:21.466Z,53568.00
2019-06-01T15:36:21.074Z,55648.00
2019-06-01T15:41:21.057Z,50976.00
2019-06-01T15:46:21.116Z,49344.00
2019-06-01T15:51:21.046Z,44608.00
2019-06-01T15:56:23.612Z,41472.00
2019-06-01T16:01:26.364Z,42656.00
2019-06-01T16:06:20.838Z,42784.00
2019-06-01T16:11:20.879Z,41952.00
2019-06-01T16:16:20.777Z,39712.00
2019-06-01T16:21:20.769Z,42368.00
2019-06-01T16:26:20.824Z,40192.00
2019-06-01T16:31:20.771Z,40544.00
2019-06-01T16:36:20.609Z,39200.00
2019-06-01T16:41:20.541Z,36576.00
2019-06-01T16:46:20.505Z,34688.00
2019-06-01T16:51:20.450Z,33056.00
2019-06-01T16:56:20.413Z,34592.00
2019-06-01T17:01:22.685Z,30528.00
2019-06-01T17:06:20.535Z,23136.00
2019-06-01T17:11:20.396Z,16608.00
2019-06-01T17:16:20.318Z,18720.00
2019-06-01T17:21:20.187Z,19168.00
2019-06-01T17:26:20.249Z,22240.00
2019-06-01T17:31:20.160Z,17952.00
2019-06-01T17:36:20.040Z,17824.00
2019-06-01T17:41:20.018Z,17600.00
2019-06-01T17:46:22.646Z,17440.00
2019-06-01T17:51:19.980Z,17248.00
2019-06-01T17:56:19.927Z,13500.00
2019-06-01T18:01:19.842Z,14412.00
2019-06-01T18:06:19.804Z,12264.00
2019-06-01T18:11:19.734Z,6544.00
2019-06-01T18:16:19.680Z,5940.00
2019-06-01T18:21:19.615Z,5836.00
2019-06-01T18:26:19.637Z,5324.00
2019-06-01T18:31:19.594Z,4528.00
2019-06-01T18:36:20.469Z,3848.00
2019-06-01T18:41:20.157Z,3356.00
2019-06-01T18:46:19.415Z,2952.00
2019-06-01T18:51:19.310Z,2604.00
2019-06-01T18:56:19.343Z,2408.00
2019-06-01T19:01:20.980Z,2208.00
2019-06-01T19:06:19.158Z,2100.00
2019-06-01T19:11:32.620Z,1948.00
2019-06-01T19:16:20.017Z,1584.00
2019-06-01T19:21:19.004Z,1240.00
2019-06-01T19:26:18.919Z,956.00
2019-06-01T19:31:18.856Z,684.00
2019-06-01T19:36:18.799Z,472.00
2019-06-01T19:41:18.758Z,328.00
2019-06-01T19:46:18.690Z,224.00
2019-06-01T19:51:18.849Z,144.00
2019-06-01T19:56:20.489Z,84.00
2019-06-01T20:01:18.572Z,48.00
2019-06-01T20:06:18.946Z,24.00
2019-06-01T20:11:19.346Z,12.00
2019-06-01T20:16:20.244Z,4.00
2019-06-01T20:21:18.811Z,4.00
2019-06-01T20:26:19.399Z,0.00
2019-06-01T20:31:18.251Z,0.00
2019-06-01T20:36:18.199Z,0.00
2019-06-01T20:41:18.646Z,0.00
2019-06-01T20:46:18.827Z,0.00
2019-06-01T20:51:18.825Z,0.00
2019-06-01T20:56:19.353Z,0.00
2019-06-01T21:01:17.948Z,0.00
2019-06-01T21:06:18.716Z,0.00
2019-06-01T21:11:17.942Z,0.00
2019-06-01T21:16:18.084Z,0.00
2019-06-01T21:21:18.298Z,0.00
2019-06-01T21:26:18.938Z,0.00
2019-06-01T21:31:17.557Z,0.00
2019-06-01T21:36:17.521Z,0.00
2019-06-01T21:41:17.553Z,0.00
2019-06-01T21:46:17.602Z,0.00
2019-06-01T21:51:17.743Z,0.00
2019-06-01T21:56:20.128Z,0.00
2019-06-01T22:01:18.382Z,0.00
2019-06-01T22:06:17.277Z,0.00
2019-06-01T22:11:17.354Z,0.00
2019-06-01T22:16:17.508Z,0.00
2019-06-01T22:21:17.637Z,0.00
2019-06-01T22:26:17.882Z,0.00
2019-06-01T22:31:18.166Z,0.00
2019-06-01T22:36:16.989Z,0.00
2019-06-01T22:41:16.980Z,0.00
2019-06-01T22:46:16.798Z,0.00
2019-06-01T22:51:16.690Z,0.00
2019-06-01T22:56:16.633Z,0.00
2019-06-01T23:01:16.567Z,0.00
2019-06-01T23:06:16.519Z,0.00
2019-06-01T23:11:16.498Z,0.00
2019-06-01T23:16:16.437Z,0.00
2019-06-01T23:21:16.484Z,0.00
2019-06-01T23:26:16.391Z,0.00
2019-06-01T23:31:16.340Z,0.00
2019-06-01T23:36:16.262Z,0.00
2019-06-01T23:41:16.206Z,0.00
2019-06-01T23:46:16.146Z,0.00
2019-06-01T23:51:16.084Z,0.00
2019-06-01T23:56:16.079Z,0.00
